Mengla, China
Current Conditions -  °F | °C
As of 12:00 PM on Friday 19 Dec 2014 (Local Time) from VTCT Reporting Station
Clear Clear  
Wind Chill: 72°   Ceiling: Unl
Heat Index: 72°   Visibility: 6mi
Dew Point: 52°   Wind: 12mph
Humidity: 50%   Direction: 360°N
Pressure: 30.21"   Gusts: NA
Location:  21.5°N, 101.58°E
Report Text: VTCT 190400Z 36010KT CAVOK 22/11 Q1023 A3022RMK/RWY03 INFO E
Loading
Personal Weather Stations






























Interactive Weather Map New forecast layout! Learn more

10-Day Weather Forecast

Advertisements
Track Severe Weather on mobile